createdAt,value
2022-12-04T00:02:24.064Z,102184.06
2022-12-04T00:04:50.792Z,102183.13
2022-12-04T00:07:17.331Z,102182.22
2022-12-04T00:09:43.723Z,102180.47
2022-12-04T00:12:10.103Z,102175.34
2022-12-04T00:14:54.597Z,102182.22
2022-12-04T00:17:22.863Z,102171.75
2022-12-04T00:19:49.379Z,102176.03
2022-12-04T00:22:15.737Z,102179.47
2022-12-04T00:24:42.094Z,102188.09
2022-12-04T00:27:08.430Z,102178.63
2022-12-04T00:29:34.873Z,102179.47
2022-12-04T00:32:01.327Z,102177.72
2022-12-04T00:34:28.392Z,102169.09
2022-12-04T00:36:54.854Z,102169.13
2022-12-04T00:39:21.354Z,102171.72
2022-12-04T00:41:47.744Z,102173.44
2022-12-04T00:44:14.108Z,102173.47
2022-12-04T00:46:40.513Z,102176.06
2022-12-04T00:49:06.849Z,102175.19
2022-12-04T00:51:33.247Z,102174.28
2022-12-04T00:53:59.641Z,102169.94
2022-12-04T00:56:28.226Z,102172.53
2022-12-04T00:58:56.923Z,102165.69
2022-12-04T01:01:24.757Z,102167.38
2022-12-04T01:03:51.899Z,102169.97
2022-12-04T01:06:27.546Z,102169.09
2022-12-04T01:08:56.145Z,102169.94
2022-12-04T01:11:26.785Z,102169.94
2022-12-04T01:13:53.566Z,102171.66
2022-12-04T01:16:22.999Z,102163.09
2022-12-04T01:18:50.378Z,102163.09
2022-12-04T01:21:17.607Z,102161.38
2022-12-04T01:23:44.254Z,102169.16
2022-12-04T01:26:10.818Z,102161.44
2022-12-04T01:28:37.545Z,102166.66
2022-12-04T01:31:13.235Z,102165.81
2022-12-04T01:33:40.503Z,102170.13
2022-12-04T01:36:09.539Z,102160.66
2022-12-04T01:38:36.510Z,102162.38
2022-12-04T01:41:03.125Z,102162.41
2022-12-04T01:43:31.513Z,102163.31
2022-12-04T01:46:00.092Z,102160.78
2022-12-04T01:48:37.377Z,102173.72
2022-12-04T01:51:22.597Z,102159.00
2022-12-04T01:53:59.110Z,102156.38
2022-12-04T01:56:33.425Z,102154.66
2022-12-04T01:59:02.228Z,102154.69
2022-12-04T02:01:34.093Z,102153.84
2022-12-04T02:04:02.322Z,102149.56
2022-12-04T02:06:28.685Z,102154.78
2022-12-04T02:08:55.338Z,102160.00
2022-12-04T02:11:35.893Z,102159.13
2022-12-04T02:14:20.954Z,102159.97
2022-12-04T02:17:06.823Z,102159.03
2022-12-04T02:19:58.802Z,102140.03
2022-12-04T02:22:53.449Z,102146.94
2022-12-04T02:25:38.121Z,102148.63
2022-12-04T02:28:28.540Z,102139.16
2022-12-04T02:30:58.394Z,102132.22
2022-12-04T02:33:29.617Z,102134.78
2022-12-04T02:36:03.556Z,102129.66
2022-12-04T02:38:41.640Z,102130.50
2022-12-04T02:41:14.819Z,102130.47
2022-12-04T02:43:46.064Z,102131.28
2022-12-04T02:46:23.970Z,102128.69
2022-12-04T02:48:53.474Z,102121.84
2022-12-04T02:51:21.503Z,102121.00
2022-12-04T02:53:53.950Z,102120.13
2022-12-04T02:56:26.846Z,102122.66
2022-12-04T02:58:57.390Z,102124.38
2022-12-04T03:01:29.663Z,102123.50
2022-12-04T03:03:59.555Z,102130.41
2022-12-04T03:06:29.133Z,102127.03
2022-12-04T03:09:11.489Z,102129.63
2022-12-04T03:11:40.527Z,102130.47
2022-12-04T03:14:13.786Z,102145.13
2022-12-04T03:16:42.360Z,102136.53
2022-12-04T03:19:29.508Z,102141.72
2022-12-04T03:22:06.968Z,102136.50
2022-12-04T03:24:38.823Z,102133.94
2022-12-04T03:27:08.589Z,102132.19
2022-12-04T03:29:46.010Z,102132.28
2022-12-04T03:32:17.629Z,102135.72
2022-12-04T03:34:56.386Z,102132.28
2022-12-04T03:37:45.224Z,102133.13
2022-12-04T03:40:25.675Z,102131.38
2022-12-04T03:43:17.302Z,102129.66
2022-12-04T03:45:48.527Z,102136.56
2022-12-04T03:48:22.951Z,102131.41
2022-12-04T03:51:26.850Z,102132.28
2022-12-04T03:54:02.461Z,102129.72
2022-12-04T03:56:34.686Z,102127.16
2022-12-04T03:59:11.280Z,102128.88
2022-12-04T04:01:46.177Z,102122.88
2022-12-04T04:04:18.182Z,102130.66
2022-12-04T04:06:50.730Z,102122.88
2022-12-04T04:09:24.329Z,102128.94
2022-12-04T04:12:06.697Z,102123.84
2022-12-04T04:15:15.791Z,102123.00
2022-12-04T04:18:07.283Z,102131.63
2022-12-04T04:20:57.295Z,102125.56
2022-12-04T04:23:43.651Z,102125.56
2022-12-04T04:26:13.222Z,102129.84
2022-12-04T04:28:41.288Z,102122.88
2022-12-04T04:31:21.176Z,102127.13
2022-12-04T04:34:03.120Z,102118.47
2022-12-04T04:36:40.936Z,102112.38
2022-12-04T04:39:16.515Z,102109.81
2022-12-04T04:41:51.108Z,102114.16
2022-12-04T04:44:29.476Z,102121.06
2022-12-04T04:47:01.989Z,102128.81
2022-12-04T04:49:32.218Z,102123.69
2022-12-04T04:51:58.933Z,102125.53
2022-12-04T04:54:27.750Z,102129.03
2022-12-04T04:56:54.188Z,102132.50
2022-12-04T04:59:20.580Z,102118.69
2022-12-04T05:01:47.684Z,102126.44
2022-12-04T05:04:14.892Z,102125.53
2022-12-04T05:06:41.339Z,102124.63
2022-12-04T05:09:07.723Z,102127.22
2022-12-04T05:11:38.722Z,102135.81
2022-12-04T05:14:06.059Z,102131.53
2022-12-04T05:16:32.704Z,102138.44
2022-12-04T05:19:17.790Z,102138.47
2022-12-04T05:21:44.223Z,102144.47
2022-12-04T05:24:10.639Z,102149.66
2022-12-04T05:26:37.097Z,102142.72
2022-12-04T05:29:03.499Z,102140.19
2022-12-04T05:31:30.052Z,102135.00
2022-12-04T05:33:57.107Z,102139.34
2022-12-04T05:36:23.579Z,102140.22
2022-12-04T05:38:49.919Z,102134.13
2022-12-04T05:41:16.266Z,102131.53
2022-12-04T05:43:42.749Z,102137.56
2022-12-04T05:46:10.587Z,102138.44
2022-12-04T05:48:37.265Z,102135.91
2022-12-04T05:51:08.036Z,102138.53
2022-12-04T05:53:34.701Z,102142.03
2022-12-04T05:56:03.393Z,102134.31
2022-12-04T05:58:30.405Z,102135.19
2022-12-04T06:00:56.924Z,102136.03
2022-12-04T06:03:23.383Z,102131.72
2022-12-04T06:05:49.897Z,102133.47
2022-12-04T06:08:16.406Z,102136.06
2022-12-04T06:10:42.822Z,102130.88
2022-12-04T06:13:09.262Z,102130.91
2022-12-04T06:15:39.717Z,102131.78
2022-12-04T06:18:06.232Z,102128.31
2022-12-04T06:20:33.233Z,102134.38
2022-12-04T06:22:59.892Z,102143.88
2022-12-04T06:25:26.341Z,102144.75
2022-12-04T06:27:52.676Z,102149.00
2022-12-04T06:30:19.058Z,102153.31
2022-12-04T06:32:45.512Z,102149.03
2022-12-04T06:35:11.858Z,102146.47
2022-12-04T06:37:38.320Z,102141.25
2022-12-04T06:40:05.440Z,102149.03
2022-12-04T06:42:31.886Z,102139.56
2022-12-04T06:44:58.321Z,102146.47
2022-12-04T06:47:24.737Z,102138.78
2022-12-04T06:49:51.519Z,102144.78
2022-12-04T06:52:18.057Z,102143.97
2022-12-04T06:54:44.573Z,102150.06
2022-12-04T06:57:10.958Z,102156.94
2022-12-04T06:59:37.544Z,102156.94
2022-12-04T07:02:03.978Z,102153.50
2022-12-04T07:04:30.516Z,102155.22
2022-12-04T07:06:56.875Z,102164.72
2022-12-04T07:09:23.400Z,102160.41
2022-12-04T07:11:49.805Z,102156.94
2022-12-04T07:14:16.198Z,102152.66
2022-12-04T07:16:43.089Z,102150.94
2022-12-04T07:19:11.080Z,102149.22
2022-12-04T07:21:37.452Z,102160.44
2022-12-04T07:24:04.135Z,102152.69
2022-12-04T07:26:30.818Z,102151.81
2022-12-04T07:28:58.490Z,102154.38
2022-12-04T07:31:26.440Z,102149.19
2022-12-04T07:33:54.424Z,102162.16
2022-12-04T07:36:21.806Z,102153.53
2022-12-04T07:38:48.487Z,102146.59
2022-12-04T07:41:15.701Z,102147.44
2022-12-04T07:43:42.455Z,102156.06
2022-12-04T07:46:13.423Z,102151.84
2022-12-04T07:48:40.412Z,102160.53
2022-12-04T07:51:16.283Z,102170.91
2022-12-04T07:53:43.328Z,102153.72
2022-12-04T07:56:11.209Z,102169.25
2022-12-04T07:58:38.170Z,102167.56
2022-12-04T08:01:13.800Z,102164.09
2022-12-04T08:03:47.161Z,102171.84
2022-12-04T08:06:14.579Z,102171.84
2022-12-04T08:08:40.937Z,102171.91
2022-12-04T08:11:09.460Z,102172.81
2022-12-04T08:13:36.237Z,102171.97
2022-12-04T08:16:03.862Z,102165.97
2022-12-04T08:18:30.535Z,102166.00
2022-12-04T08:21:04.854Z,102166.06
2022-12-04T08:23:31.281Z,102160.91
2022-12-04T08:26:00.215Z,102169.56
2022-12-04T08:28:27.949Z,102168.75
2022-12-04T08:30:54.381Z,102172.16
2022-12-04T08:33:21.419Z,102165.31
2022-12-04T08:35:47.788Z,102162.75
2022-12-04T08:38:14.226Z,102164.47
2022-12-04T08:40:42.436Z,102167.97
2022-12-04T08:43:08.763Z,102167.16
2022-12-04T08:45:35.203Z,102173.25
2022-12-04T08:48:02.188Z,102161.25
2022-12-04T08:50:28.671Z,102163.84
2022-12-04T08:52:55.153Z,102163.91
2022-12-04T08:55:21.584Z,102162.22
2022-12-04T08:57:48.005Z,102163.16
2022-12-04T09:00:15.456Z,102171.78
2022-12-04T09:02:42.117Z,102165.81
2022-12-04T09:05:08.722Z,102158.91
2022-12-04T09:07:35.227Z,102158.03
2022-12-04T09:10:01.844Z,102161.59
2022-12-04T09:12:28.712Z,102161.69
2022-12-04T09:14:55.111Z,102160.81
2022-12-04T09:17:21.505Z,102153.13
2022-12-04T09:19:47.869Z,102160.06
2022-12-04T09:22:14.237Z,102152.38
2022-12-04T09:24:40.707Z,102151.53
2022-12-04T09:27:12.889Z,102157.63
2022-12-04T09:29:41.079Z,102165.41
2022-12-04T09:32:07.478Z,102156.81
2022-12-04T09:34:33.942Z,102159.44
2022-12-04T09:37:00.291Z,102155.19
2022-12-04T09:39:28.533Z,102153.47
2022-12-04T09:42:10.482Z,102149.19
2022-12-04T09:44:44.063Z,102157.00
2022-12-04T09:47:24.104Z,102153.56
2022-12-04T09:49:59.051Z,102148.44
2022-12-04T09:52:30.500Z,102150.19
2022-12-04T09:54:58.483Z,102138.97
2022-12-04T09:57:47.220Z,102146.75
2022-12-04T10:00:17.391Z,102130.38
2022-12-04T10:02:55.004Z,102133.03
2022-12-04T10:05:38.603Z,102133.94
2022-12-04T10:08:15.621Z,102129.63
2022-12-04T10:10:54.779Z,102121.00
2022-12-04T10:14:23.059Z,102126.28
2022-12-04T10:17:03.250Z,102129.75
2022-12-04T10:19:36.119Z,102129.78
2022-12-04T10:22:24.810Z,102131.50
2022-12-04T10:24:53.640Z,102127.22
2022-12-04T10:27:26.436Z,102134.13
2022-12-04T10:29:59.240Z,102124.63
2022-12-04T10:32:31.790Z,102116.84
2022-12-04T10:35:15.175Z,102119.44
2022-12-04T10:37:43.410Z,102118.56
2022-12-04T10:40:18.085Z,102124.63
2022-12-04T10:42:55.937Z,102125.50
2022-12-04T10:45:23.530Z,102120.31
2022-12-04T10:47:53.014Z,102120.31
2022-12-04T10:50:24.873Z,102120.31
2022-12-04T10:52:51.618Z,102121.19
2022-12-04T10:55:29.668Z,102116.84
2022-12-04T10:57:56.343Z,102109.16
2022-12-04T11:00:31.949Z,102107.34
2022-12-04T11:03:24.610Z,102115.13
2022-12-04T11:05:58.011Z,102109.94
2022-12-04T11:08:28.042Z,102107.34
2022-12-04T11:11:01.340Z,102103.03
2022-12-04T11:13:28.599Z,102103.91
2022-12-04T11:15:56.851Z,102103.88
2022-12-04T11:18:26.993Z,102108.19
2022-12-04T11:21:22.940Z,102100.41
2022-12-04T11:23:51.246Z,102092.66
2022-12-04T11:26:31.267Z,102083.16
2022-12-04T11:29:01.190Z,102089.22
2022-12-04T11:31:29.454Z,102083.16
2022-12-04T11:33:59.981Z,102085.81
2022-12-04T11:36:41.650Z,102088.41
2022-12-04T11:39:15.374Z,102092.75
2022-12-04T11:41:41.816Z,102083.22
2022-12-04T11:44:49.937Z,102091.00
2022-12-04T11:47:18.897Z,102078.91
2022-12-04T11:49:45.989Z,102085.84
2022-12-04T11:52:45.670Z,102079.81
2022-12-04T11:55:28.895Z,102076.34
2022-12-04T11:58:25.750Z,102076.38
2022-12-04T12:01:11.230Z,102082.44
2022-12-04T12:04:03.594Z,102072.94
2022-12-04T12:06:35.033Z,102066.94
2022-12-04T12:09:16.321Z,102059.19
2022-12-04T12:12:14.407Z,102057.47
2022-12-04T12:14:59.887Z,102059.25
2022-12-04T12:17:41.649Z,102060.97
2022-12-04T12:20:15.391Z,102063.56
2022-12-04T12:23:15.695Z,102065.28
2022-12-04T12:26:08.814Z,102069.63
2022-12-04T12:28:48.247Z,102064.50
2022-12-04T12:31:47.548Z,102062.75
2022-12-04T12:34:37.386Z,102066.22
2022-12-04T12:37:28.659Z,102065.34
2022-12-04T12:40:07.570Z,102061.84
2022-12-04T12:42:39.235Z,102060.19
2022-12-04T12:45:28.635Z,102059.38
2022-12-04T12:47:59.092Z,102058.50
2022-12-04T12:50:38.655Z,102054.19
2022-12-04T12:53:16.715Z,102043.88
2022-12-04T12:55:56.631Z,102049.94
2022-12-04T12:58:38.565Z,102049.09
2022-12-04T13:01:15.300Z,102047.38
2022-12-04T13:04:03.458Z,102037.88
2022-12-04T13:06:38.911Z,102034.41
2022-12-04T13:09:27.503Z,102027.50
2022-12-04T13:12:00.083Z,102015.41
2022-12-04T13:14:26.594Z,102012.81
2022-12-04T13:17:03.984Z,102013.75
2022-12-04T13:19:43.489Z,102015.50
2022-12-04T13:22:29.674Z,102012.06
2022-12-04T13:24:58.861Z,102003.41
2022-12-04T13:27:47.181Z,101997.38
2022-12-04T13:30:20.024Z,101997.47
2022-12-04T13:33:25.914Z,101987.94
2022-12-04T13:36:16.922Z,101988.84
2022-12-04T13:39:20.268Z,101995.75
2022-12-04T13:41:47.111Z,101991.44
2022-12-04T13:44:20.697Z,101985.38
2022-12-04T13:46:57.075Z,101980.22
2022-12-04T13:49:29.209Z,101976.78
2022-12-04T13:51:57.491Z,101982.00
2022-12-04T13:54:32.173Z,101991.56
2022-12-04T13:57:17.046Z,101988.97
2022-12-04T13:59:44.422Z,101982.88
2022-12-04T14:02:28.792Z,101989.78
2022-12-04T14:04:59.105Z,101991.56
2022-12-04T14:07:32.987Z,101996.75
2022-12-04T14:10:04.589Z,102001.94
2022-12-04T14:12:39.059Z,102000.22
2022-12-04T14:15:26.936Z,102009.75
2022-12-04T14:18:18.646Z,102006.28
2022-12-04T14:20:45.207Z,102008.00
2022-12-04T14:23:26.226Z,102008.00
2022-12-04T14:25:59.954Z,102001.09
2022-12-04T14:28:42.289Z,102000.25
2022-12-04T14:31:09.076Z,102008.94
2022-12-04T14:33:45.163Z,101997.72
2022-12-04T14:36:28.390Z,102001.19
2022-12-04T14:39:11.662Z,102005.50
2022-12-04T14:41:38.815Z,102008.94
2022-12-04T14:44:05.446Z,102002.88
2022-12-04T14:46:39.963Z,101998.56
2022-12-04T14:49:46.971Z,102004.63
2022-12-04T14:52:27.135Z,102003.75
2022-12-04T14:55:13.614Z,102002.00
2022-12-04T14:58:24.062Z,102006.38
2022-12-04T15:00:52.605Z,101996.84
2022-12-04T15:03:19.426Z,101997.72
2022-12-04T15:05:46.550Z,101989.94
2022-12-04T15:08:14.228Z,101984.72
2022-12-04T15:11:06.752Z,101989.91
2022-12-04T15:13:35.621Z,101989.91
2022-12-04T15:16:17.491Z,101990.78
2022-12-04T15:19:00.346Z,101986.47
2022-12-04T15:21:39.710Z,101988.19
2022-12-04T15:24:11.141Z,101981.28
2022-12-04T15:26:39.016Z,101979.56
2022-12-04T15:29:07.280Z,101977.81
2022-12-04T15:31:43.387Z,101978.69
2022-12-04T15:34:16.957Z,101983.06
2022-12-04T15:36:49.064Z,101977.06
2022-12-04T15:39:20.129Z,101971.88
2022-12-04T15:41:46.952Z,101973.59
2022-12-04T15:45:02.200Z,101977.94
2022-12-04T15:47:30.029Z,101973.59
2022-12-04T15:50:11.469Z,101974.47
2022-12-04T15:52:38.393Z,101974.47
2022-12-04T15:55:09.065Z,101979.69
2022-12-04T15:57:38.504Z,101962.38
2022-12-04T16:00:08.024Z,101971.88
2022-12-04T16:02:40.113Z,101966.69
2022-12-04T16:05:21.411Z,101969.31
2022-12-04T16:07:50.729Z,101971.94
2022-12-04T16:10:34.820Z,101968.50
2022-12-04T16:13:03.337Z,101975.41
2022-12-04T16:15:47.835Z,101971.09
2022-12-04T16:18:14.495Z,101969.38
2022-12-04T16:20:41.285Z,101967.66
2022-12-04T16:23:07.808Z,101965.91
2022-12-04T16:25:34.157Z,101963.34
2022-12-04T16:28:01.354Z,101959.91
2022-12-04T16:30:31.605Z,101951.31
2022-12-04T16:32:58.118Z,101952.16
2022-12-04T16:35:24.496Z,101953.03
2022-12-04T16:37:50.955Z,101966.00
2022-12-04T16:40:17.518Z,101965.19
2022-12-04T16:42:44.421Z,101953.91
2022-12-04T16:45:26.472Z,101965.16
2022-12-04T16:47:53.039Z,101959.97
2022-12-04T16:50:19.448Z,101952.25
2022-12-04T16:52:45.984Z,101956.56
2022-12-04T16:55:33.389Z,101955.72
2022-12-04T16:57:59.839Z,101960.03
2022-12-04T17:00:26.215Z,101957.38
2022-12-04T17:02:53.055Z,101971.28
2022-12-04T17:05:25.445Z,101971.28
2022-12-04T17:07:52.698Z,101971.28
2022-12-04T17:10:23.766Z,101971.28
2022-12-04T17:12:54.117Z,101977.38
2022-12-04T17:15:20.589Z,101977.38
2022-12-04T17:17:47.111Z,101982.56
2022-12-04T17:20:16.985Z,101990.38
2022-12-04T17:22:43.563Z,101982.56
2022-12-04T17:25:10.964Z,101981.75
2022-12-04T17:27:37.346Z,101986.97
2022-12-04T17:30:05.573Z,101983.50
2022-12-04T17:32:32.695Z,101991.31
2022-12-04T17:34:59.338Z,101987.84
2022-12-04T17:37:25.931Z,102000.84
2022-12-04T17:39:52.323Z,101998.28
2022-12-04T17:42:19.309Z,102005.22
2022-12-04T17:44:45.701Z,101999.16
2022-12-04T17:47:12.386Z,101995.69
2022-12-04T17:49:38.900Z,101997.44
2022-12-04T17:52:05.443Z,102002.63
2022-12-04T17:54:31.855Z,102000.03
2022-12-04T17:56:58.330Z,101998.31
2022-12-04T17:59:24.743Z,101994.84
2022-12-04T18:01:51.281Z,101999.25
2022-12-04T18:04:18.753Z,102001.84
2022-12-04T18:06:46.227Z,102005.31
2022-12-04T18:09:19.767Z,102001.84
2022-12-04T18:11:48.012Z,102002.72
2022-12-04T18:14:18.212Z,102006.19
2022-12-04T18:16:47.697Z,102001.88
2022-12-04T18:19:15.128Z,102001.00
2022-12-04T18:21:41.869Z,102001.00
2022-12-04T18:24:08.418Z,102002.78
2022-12-04T18:26:48.020Z,102005.38
2022-12-04T18:29:17.950Z,101999.34
2022-12-04T18:31:45.055Z,102007.13
2022-12-04T18:34:12.145Z,102014.94
2022-12-04T18:36:40.598Z,102014.06
2022-12-04T18:39:21.884Z,102010.56
2022-12-04T18:41:48.858Z,102011.44
2022-12-04T18:44:16.192Z,102007.13
2022-12-04T18:46:42.916Z,102008.00
2022-12-04T18:49:10.313Z,102014.06
2022-12-04T18:51:43.711Z,102018.41
2022-12-04T18:54:19.233Z,102011.47
2022-12-04T18:56:45.849Z,102013.19
2022-12-04T18:59:25.007Z,102015.78
2022-12-04T19:01:53.061Z,102010.59
2022-12-04T19:04:21.947Z,102014.06
2022-12-04T19:06:51.973Z,102015.78
2022-12-04T19:09:35.484Z,102016.66
2022-12-04T19:12:09.016Z,102012.34
2022-12-04T19:14:35.368Z,102014.06
2022-12-04T19:17:02.223Z,102016.66
2022-12-04T19:19:31.594Z,102024.47
2022-12-04T19:21:59.016Z,102015.81
2022-12-04T19:24:25.382Z,102014.06
2022-12-04T19:26:53.967Z,102016.66
2022-12-04T19:29:20.429Z,102014.94
2022-12-04T19:31:47.093Z,102020.13
2022-12-04T19:34:13.582Z,102021.84
2022-12-04T19:36:41.101Z,102014.06
2022-12-04T19:39:07.549Z,102011.47
2022-12-04T19:41:41.285Z,102014.06
2022-12-04T19:44:40.247Z,102020.13
2022-12-04T19:46:56.136Z,102021.00
2022-12-04T19:49:22.584Z,102016.69
2022-12-04T19:51:49.437Z,102016.66
2022-12-04T19:54:16.763Z,102008.88
2022-12-04T19:56:46.070Z,102003.69
2022-12-04T19:59:13.039Z,101998.50
2022-12-04T20:01:39.563Z,101990.72
2022-12-04T20:04:07.869Z,101997.63
2022-12-04T20:06:40.537Z,101997.69
2022-12-04T20:09:09.438Z,101999.41
2022-12-04T20:11:37.370Z,101993.31
2022-12-04T20:14:05.047Z,101999.38
2022-12-04T20:16:33.184Z,101996.78
2022-12-04T20:19:01.352Z,102000.22
2022-12-04T20:21:31.916Z,101995.91
2022-12-04T20:24:02.213Z,101994.16
2022-12-04T20:26:31.541Z,101995.94
2022-12-04T20:28:59.599Z,101991.63
2022-12-04T20:31:34.747Z,101993.38
2022-12-04T20:34:03.798Z,101990.75
2022-12-04T20:36:32.180Z,101988.16
2022-12-04T20:38:59.407Z,101984.69
2022-12-04T20:41:28.463Z,101978.66
2022-12-04T20:43:55.890Z,101973.44
2022-12-04T20:46:28.226Z,101980.38
2022-12-04T20:48:57.808Z,101978.66
2022-12-04T20:51:30.815Z,101984.72
2022-12-04T20:53:58.808Z,101983.84
2022-12-04T20:56:29.731Z,101977.78
2022-12-04T20:58:58.190Z,101989.91
2022-12-04T21:01:25.694Z,101975.19
2022-12-04T21:03:53.127Z,101983.84
2022-12-04T21:06:23.082Z,101979.53
2022-12-04T21:08:53.909Z,101970.00
2022-12-04T21:11:21.740Z,101960.47
2022-12-04T21:14:06.923Z,101970.00
2022-12-04T21:16:33.390Z,101966.53
2022-12-04T21:18:59.847Z,101970.00
2022-12-04T21:21:27.473Z,101970.00
2022-12-04T21:23:53.937Z,101964.81
2022-12-04T21:26:20.604Z,101970.91
2022-12-04T21:28:47.205Z,101965.69
2022-12-04T21:31:13.733Z,101958.75
2022-12-04T21:33:40.272Z,101963.94
2022-12-04T21:36:09.111Z,101962.22
2022-12-04T21:38:37.277Z,101965.72
2022-12-04T21:41:05.852Z,101959.63
2022-12-04T21:43:33.328Z,101961.34
2022-12-04T21:46:09.483Z,101955.28
2022-12-04T21:48:37.061Z,101944.91
2022-12-04T21:51:13.276Z,101950.13
2022-12-04T21:53:54.775Z,101954.47
2022-12-04T21:56:22.803Z,101954.47
2022-12-04T21:58:49.396Z,101949.28
2022-12-04T22:01:17.521Z,101947.56
2022-12-04T22:03:44.447Z,101943.25
2022-12-04T22:06:11.051Z,101937.22
2022-12-04T22:08:39.444Z,101934.63
2022-12-04T22:11:07.818Z,101935.44
2022-12-04T22:13:36.177Z,101930.25
2022-12-04T22:16:08.732Z,101932.84
2022-12-04T22:18:35.128Z,101931.13
2022-12-04T22:21:05.288Z,101940.69
2022-12-04T22:23:31.839Z,101936.34
2022-12-04T22:26:10.108Z,101936.34
2022-12-04T22:28:37.071Z,101938.06
2022-12-04T22:31:06.432Z,101940.63
2022-12-04T22:33:33.375Z,101950.16
2022-12-04T22:36:11.290Z,101946.75
2022-12-04T22:38:52.719Z,101948.47
2022-12-04T22:41:25.789Z,101949.34
2022-12-04T22:43:52.574Z,101953.63
2022-12-04T22:46:19.064Z,101951.91
2022-12-04T22:48:45.608Z,101955.38
2022-12-04T22:51:16.315Z,101947.56
2022-12-04T22:53:47.827Z,101951.88
2022-12-04T22:56:17.447Z,101946.69
2022-12-04T22:58:44.445Z,101944.09
2022-12-04T23:01:35.600Z,101950.16
2022-12-04T23:04:03.747Z,101936.31
2022-12-04T23:06:32.594Z,101938.94
2022-12-04T23:09:02.626Z,101937.22
2022-12-04T23:11:29.333Z,101939.81
2022-12-04T23:14:01.107Z,101931.16
2022-12-04T23:16:29.730Z,101930.31
2022-12-04T23:18:56.187Z,101929.44
2022-12-04T23:21:23.389Z,101924.25
2022-12-04T23:23:51.649Z,101925.13
2022-12-04T23:26:25.133Z,101924.25
2022-12-04T23:28:51.915Z,101917.31
2022-12-04T23:31:18.509Z,101921.66
2022-12-04T23:33:45.086Z,101917.31
2022-12-04T23:36:12.275Z,101922.53
2022-12-04T23:38:39.967Z,101920.78
2022-12-04T23:41:10.138Z,101922.56
2022-12-04T23:43:37.144Z,101921.69
2022-12-04T23:46:10.417Z,101920.84
2022-12-04T23:48:37.991Z,101923.44
2022-12-04T23:51:04.525Z,101914.78
2022-12-04T23:53:30.900Z,101910.44
2022-12-04T23:55:59.243Z,101919.97
2022-12-04T23:58:25.759Z,101913.03
